createdAt,value
2019-05-03T00:01:56.741Z,98891.52
2019-05-03T00:04:26.810Z,98895.11
2019-05-03T00:06:56.986Z,98887.48
2019-05-03T00:09:27.070Z,98894.26
2019-05-03T00:11:57.034Z,98893.73
2019-05-03T00:14:27.188Z,98895.33
2019-05-03T00:16:57.169Z,98898.55
2019-05-03T00:19:27.230Z,98905.44
2019-05-03T00:21:57.266Z,98910.63
2019-05-03T00:24:27.348Z,98915.44
2019-05-03T00:26:57.339Z,98913.45
2019-05-03T00:29:27.335Z,98913.21
2019-05-03T00:31:57.340Z,98916.59
2019-05-03T00:34:46.474Z,98914.66
2019-05-03T00:37:18.472Z,98921.15
2019-05-03T00:39:58.678Z,98920.59
2019-05-03T00:42:28.669Z,98922.36
2019-05-03T00:44:58.650Z,98919.25
2019-05-03T00:47:28.659Z,98920.59
2019-05-03T00:49:58.713Z,98921.75
2019-05-03T00:52:28.697Z,98921.88
2019-05-03T00:54:58.744Z,98926.47
2019-05-03T00:57:32.105Z,98931.20
2019-05-03T01:00:02.272Z,98930.35
2019-05-03T01:02:34.041Z,98926.29
2019-05-03T01:05:05.720Z,98926.22
2019-05-03T01:07:35.728Z,98930.95
2019-05-03T01:10:09.045Z,98933.22
2019-05-03T01:12:39.030Z,98933.18
2019-05-03T01:15:21.517Z,98933.80
2019-05-03T01:17:57.759Z,98936.42
2019-05-03T01:20:27.848Z,98937.45
2019-05-03T01:22:57.858Z,98929.29
2019-05-03T01:25:32.400Z,98933.21
2019-05-03T01:28:01.445Z,98926.48
2019-05-03T01:30:32.724Z,98927.30
2019-05-03T01:33:02.944Z,98928.83
2019-05-03T01:35:32.930Z,98930.91
2019-05-03T01:38:02.949Z,98932.59
2019-05-03T01:40:32.962Z,98925.02
2019-05-03T01:43:03.011Z,98927.64
2019-05-03T01:45:33.085Z,98927.77
2019-05-03T01:48:05.040Z,98927.60
2019-05-03T01:50:42.600Z,98926.96
2019-05-03T01:53:26.157Z,98925.98
2019-05-03T01:55:56.158Z,98923.92
2019-05-03T01:58:26.533Z,98924.78
2019-05-03T02:00:58.224Z,98931.91
2019-05-03T02:03:32.829Z,98934.71
2019-05-03T02:06:02.952Z,98933.09
2019-05-03T02:08:33.070Z,98937.19
2019-05-03T02:11:03.143Z,98938.52
2019-05-03T02:13:33.133Z,98935.30
2019-05-03T02:16:03.286Z,98930.75
2019-05-03T02:18:33.381Z,98928.28
2019-05-03T02:21:03.490Z,98932.96
2019-05-03T02:23:33.626Z,98934.63
2019-05-03T02:26:03.660Z,98921.42
2019-05-03T02:28:33.658Z,98930.88
2019-05-03T02:31:03.817Z,98930.62
2019-05-03T02:33:33.788Z,98932.17
2019-05-03T02:36:04.088Z,98935.30
2019-05-03T02:38:34.100Z,98936.86
2019-05-03T02:41:04.164Z,98928.95
2019-05-03T02:43:36.535Z,98936.17
2019-05-03T02:46:08.400Z,98942.58
2019-05-03T02:48:55.778Z,98943.99
2019-05-03T02:51:26.402Z,98941.41
2019-05-03T02:53:57.313Z,98938.30
2019-05-03T02:56:27.401Z,98948.03
2019-05-03T02:58:57.503Z,98938.26
2019-05-03T03:01:27.708Z,98947.05
2019-05-03T03:03:58.430Z,98939.91
2019-05-03T03:06:30.357Z,98942.14
2019-05-03T03:09:00.487Z,98942.05
2019-05-03T03:11:35.542Z,98944.55
2019-05-03T03:14:07.626Z,98943.81
2019-05-03T03:16:39.311Z,98950.09
2019-05-03T03:19:11.455Z,98948.61
2019-05-03T03:21:46.687Z,98942.39
2019-05-03T03:24:20.017Z,98939.72
2019-05-03T03:26:51.731Z,98944.86
2019-05-03T03:29:25.404Z,98944.97
2019-05-03T03:32:10.056Z,98944.39
2019-05-03T03:34:56.706Z,98946.98
2019-05-03T03:37:25.958Z,98957.27
2019-05-03T03:39:56.332Z,98959.47
2019-05-03T03:42:28.350Z,98962.59
2019-05-03T03:44:58.961Z,98958.65
2019-05-03T03:47:32.099Z,98963.03
2019-05-03T03:50:05.871Z,98957.14
2019-05-03T03:52:37.274Z,98955.14
2019-05-03T03:55:08.108Z,98962.34
2019-05-03T03:57:38.287Z,98963.31
2019-05-03T04:00:09.810Z,98964.34
2019-05-03T04:02:40.132Z,98961.81
2019-05-03T04:05:10.397Z,98964.53
2019-05-03T04:07:41.535Z,98968.75
2019-05-03T04:10:12.172Z,98962.52
2019-05-03T04:12:45.435Z,98963.96
2019-05-03T04:15:17.316Z,98964.80
2019-05-03T04:18:05.796Z,98962.98
2019-05-03T04:20:37.696Z,98971.59
2019-05-03T04:23:07.669Z,98962.52
2019-05-03T04:25:37.754Z,98962.52
2019-05-03T04:28:08.279Z,98967.95
2019-05-03T04:30:38.294Z,98968.33
2019-05-03T04:33:08.341Z,98969.83
2019-05-03T04:35:38.289Z,98962.64
2019-05-03T04:38:08.463Z,98963.31
2019-05-03T04:40:38.449Z,98966.31
2019-05-03T04:43:08.473Z,98971.25
2019-05-03T04:45:38.510Z,98964.37
2019-05-03T04:48:09.178Z,98962.52
2019-05-03T04:50:39.194Z,98972.84
2019-05-03T04:53:09.427Z,98970.73
2019-05-03T04:55:39.404Z,98970.93
2019-05-03T04:58:09.439Z,98975.92
2019-05-03T05:00:39.423Z,98968.84
2019-05-03T05:03:09.412Z,98972.23
2019-05-03T05:05:39.394Z,98968.67
2019-05-03T05:08:09.443Z,98969.05
2019-05-03T05:10:39.418Z,98970.90
2019-05-03T05:13:09.474Z,98972.95
2019-05-03T05:15:39.529Z,98975.17
2019-05-03T05:18:11.245Z,98976.55
2019-05-03T05:20:45.643Z,98978.86
2019-05-03T05:23:15.609Z,98968.98
2019-05-03T05:25:47.255Z,98968.66
2019-05-03T05:28:18.891Z,98974.86
2019-05-03T05:30:49.233Z,98975.39
2019-05-03T05:33:22.310Z,98971.23
2019-05-03T05:35:54.530Z,98965.34
2019-05-03T05:38:25.579Z,98965.50
2019-05-03T05:40:55.763Z,98961.81
2019-05-03T05:43:25.791Z,98973.55
2019-05-03T05:45:58.788Z,98966.26
2019-05-03T05:48:32.198Z,98964.84
2019-05-03T05:51:04.318Z,98965.05
2019-05-03T05:53:35.747Z,98963.85
2019-05-03T05:56:19.312Z,98961.14
2019-05-03T05:58:50.942Z,98957.47
2019-05-03T06:01:31.350Z,98956.45
2019-05-03T06:04:01.319Z,98960.30
2019-05-03T06:06:49.597Z,98956.68
2019-05-03T06:09:21.122Z,98960.53
2019-05-03T06:11:55.501Z,98964.94
2019-05-03T06:14:27.151Z,98968.27
2019-05-03T06:17:01.249Z,98960.28
2019-05-03T06:19:37.013Z,98957.37
2019-05-03T06:22:15.352Z,98966.98
2019-05-03T06:24:54.383Z,98963.73
2019-05-03T06:27:27.224Z,98960.30
2019-05-03T06:29:58.850Z,98965.02
2019-05-03T06:32:30.476Z,98960.53
2019-05-03T06:35:01.539Z,98960.05
2019-05-03T06:37:35.637Z,98960.73
2019-05-03T06:40:09.025Z,98952.23
2019-05-03T06:42:51.635Z,98952.10
2019-05-03T06:45:11.850Z,98953.79
2019-05-03T06:47:46.022Z,98951.61
2019-05-03T06:50:14.628Z,98952.89
2019-05-03T06:52:44.735Z,98950.08
2019-05-03T06:55:14.983Z,98947.58
2019-05-03T06:57:49.558Z,98944.16
2019-05-03T07:00:38.660Z,98949.92
2019-05-03T07:03:25.272Z,98946.09
2019-05-03T07:06:15.035Z,98946.69
2019-05-03T07:08:47.261Z,98946.23
2019-05-03T07:11:17.368Z,98937.82
2019-05-03T07:13:47.362Z,98942.60
2019-05-03T07:16:17.411Z,98939.45
2019-05-03T07:18:47.406Z,98944.66
2019-05-03T07:21:17.435Z,98942.39
2019-05-03T07:23:47.491Z,98938.59
2019-05-03T07:26:17.511Z,98945.88
2019-05-03T07:28:50.033Z,98941.19
2019-05-03T07:31:19.203Z,98939.33
2019-05-03T07:33:49.275Z,98941.37
2019-05-03T07:36:19.336Z,98933.50
2019-05-03T07:38:49.330Z,98932.32
2019-05-03T07:41:19.408Z,98932.71
2019-05-03T07:43:49.405Z,98932.69
2019-05-03T07:46:20.483Z,98928.75
2019-05-03T07:48:50.583Z,98924.83
2019-05-03T07:51:20.573Z,98923.77
2019-05-03T07:53:50.588Z,98919.90
2019-05-03T07:56:20.987Z,98920.70
2019-05-03T07:59:00.119Z,98917.02
2019-05-03T08:01:31.781Z,98919.88
2019-05-03T08:04:01.769Z,98915.66
2019-05-03T08:06:31.812Z,98915.88
2019-05-03T08:09:01.789Z,98920.80
2019-05-03T08:11:35.158Z,98913.81
2019-05-03T08:14:06.604Z,98914.02
2019-05-03T08:16:36.728Z,98914.53
2019-05-03T08:19:06.738Z,98916.29
2019-05-03T08:21:38.439Z,98912.14
2019-05-03T08:24:08.536Z,98917.77
2019-05-03T08:26:38.566Z,98907.56
2019-05-03T08:29:15.979Z,98902.70
2019-05-03T08:31:41.887Z,98900.01
2019-05-03T08:34:15.349Z,98905.84
2019-05-03T08:36:54.878Z,98903.84
2019-05-03T08:39:26.489Z,98897.26
2019-05-03T08:41:58.190Z,98895.70
2019-05-03T08:44:28.322Z,98897.39
2019-05-03T08:46:58.847Z,98895.13
2019-05-03T08:49:28.984Z,98902.44
2019-05-03T08:51:59.001Z,98891.59
2019-05-03T08:54:28.991Z,98893.63
2019-05-03T08:56:59.017Z,98891.23
2019-05-03T08:59:32.511Z,98890.12
2019-05-03T09:02:03.543Z,98885.34
2019-05-03T09:04:37.355Z,98883.25
2019-05-03T09:07:05.515Z,98885.51
2019-05-03T09:09:43.416Z,98881.09
2019-05-03T09:12:14.504Z,98879.77
2019-05-03T09:14:48.397Z,98877.08
2019-05-03T09:17:17.848Z,98875.03
2019-05-03T09:19:47.874Z,98862.73
2019-05-03T09:22:17.989Z,98871.95
2019-05-03T09:24:47.983Z,98871.94
2019-05-03T09:27:18.058Z,98863.06
2019-05-03T09:29:48.056Z,98872.62
2019-05-03T09:32:18.052Z,98856.95
2019-05-03T09:34:48.090Z,98858.41
2019-05-03T09:37:18.155Z,98859.45
2019-05-03T09:39:48.184Z,98859.80
2019-05-03T09:42:18.243Z,98862.33
2019-05-03T09:44:48.238Z,98861.97
2019-05-03T09:47:18.360Z,98867.80
2019-05-03T09:49:48.355Z,98854.87
2019-05-03T09:52:18.396Z,98857.83
2019-05-03T09:54:54.744Z,98855.60
2019-05-03T09:57:24.944Z,98863.48
2019-05-03T09:59:59.654Z,98853.78
2019-05-03T10:02:26.763Z,98854.22
2019-05-03T10:04:57.832Z,98858.61
2019-05-03T10:07:27.919Z,98852.17
2019-05-03T10:09:57.910Z,98855.61
2019-05-03T10:12:27.898Z,98856.78
2019-05-03T10:14:57.969Z,98857.09
2019-05-03T10:17:35.511Z,98855.56
2019-05-03T10:20:08.216Z,98849.63
2019-05-03T10:22:38.209Z,98847.67
2019-05-03T10:25:08.516Z,98844.24
2019-05-03T10:27:47.786Z,98838.59
2019-05-03T10:30:21.569Z,98842.83
2019-05-03T10:32:56.293Z,98837.36
2019-05-03T10:35:26.323Z,98835.42
2019-05-03T10:37:56.379Z,98836.73
2019-05-03T10:40:27.412Z,98828.47
2019-05-03T10:42:57.479Z,98832.03
2019-05-03T10:45:28.161Z,98832.55
2019-05-03T10:47:58.340Z,98829.61
2019-05-03T10:50:28.317Z,98821.17
2019-05-03T10:53:11.890Z,98813.48
2019-05-03T10:55:45.109Z,98815.11
2019-05-03T10:58:19.231Z,98813.02
2019-05-03T11:00:53.346Z,98818.23
2019-05-03T11:03:22.643Z,98819.09
2019-05-03T11:05:54.784Z,98823.47
2019-05-03T11:08:24.454Z,98826.84
2019-05-03T11:10:54.896Z,98829.38
2019-05-03T11:13:26.478Z,98829.52
2019-05-03T11:15:56.579Z,98833.22
2019-05-03T11:18:28.260Z,98834.23
2019-05-03T11:20:58.242Z,98829.86
2019-05-03T11:23:28.376Z,98833.13
2019-05-03T11:25:58.402Z,98837.06
2019-05-03T11:28:28.369Z,98827.97
2019-05-03T11:31:02.468Z,98830.17
2019-05-03T11:33:35.863Z,98831.44
2019-05-03T11:36:22.743Z,98831.83
2019-05-03T11:38:55.742Z,98832.08
2019-05-03T11:41:32.535Z,98834.29
2019-05-03T11:44:00.527Z,98821.75
2019-05-03T11:46:30.616Z,98828.05
2019-05-03T11:49:00.608Z,98818.75
2019-05-03T11:51:31.621Z,98819.17
2019-05-03T11:54:01.688Z,98820.17
2019-05-03T11:56:31.687Z,98812.87
2019-05-03T11:59:01.665Z,98807.75
2019-05-03T12:01:35.568Z,98807.89
2019-05-03T12:04:05.106Z,98807.00
2019-05-03T12:06:36.807Z,98813.19
2019-05-03T12:09:07.422Z,98810.16
2019-05-03T12:11:39.542Z,98802.44
2019-05-03T12:14:12.513Z,98810.36
2019-05-03T12:17:17.535Z,98807.69
2019-05-03T12:19:22.829Z,98805.06
2019-05-03T12:21:50.749Z,98807.77
2019-05-03T12:24:22.099Z,98801.45
2019-05-03T12:26:52.378Z,98802.84
2019-05-03T12:29:24.471Z,98796.77
2019-05-03T12:31:54.819Z,98802.91
2019-05-03T12:34:25.577Z,98809.68
2019-05-03T12:36:55.756Z,98802.03
2019-05-03T12:39:29.995Z,98802.59
2019-05-03T12:41:57.547Z,98799.59
2019-05-03T12:44:27.811Z,98801.67
2019-05-03T12:46:57.923Z,98802.45
2019-05-03T12:49:28.038Z,98797.67
2019-05-03T12:51:58.073Z,98791.54
2019-05-03T12:54:28.080Z,98793.78
2019-05-03T12:56:58.170Z,98792.20
2019-05-03T12:59:36.077Z,98794.44
2019-05-03T13:02:15.524Z,98791.88
2019-05-03T13:04:47.919Z,98791.25
2019-05-03T13:07:28.495Z,98784.90
2019-05-03T13:09:58.486Z,98774.70
2019-05-03T13:12:29.818Z,98777.42
2019-05-03T13:14:59.960Z,98777.73
2019-05-03T13:17:39.066Z,98773.92
2019-05-03T13:20:11.940Z,98774.75
2019-05-03T13:22:42.221Z,98762.09
2019-05-03T13:25:15.484Z,98759.39
2019-05-03T13:27:48.800Z,98761.86
2019-05-03T13:30:18.938Z,98763.59
2019-05-03T13:32:48.961Z,98760.97
2019-05-03T13:35:18.970Z,98758.09
2019-05-03T13:37:48.977Z,98755.11
2019-05-03T13:40:19.046Z,98759.16
2019-05-03T13:42:57.136Z,98760.84
2019-05-03T13:45:20.814Z,98756.35
2019-05-03T13:47:50.758Z,98751.06
2019-05-03T13:50:20.760Z,98752.00
2019-05-03T13:52:50.756Z,98744.13
2019-05-03T13:55:20.738Z,98746.62
2019-05-03T13:57:50.781Z,98746.63
2019-05-03T14:00:20.831Z,98743.72
2019-05-03T14:02:50.943Z,98747.85
2019-05-03T14:05:20.942Z,98758.13
2019-05-03T14:07:50.999Z,98765.02
2019-05-03T14:10:21.116Z,98761.11
2019-05-03T14:12:51.139Z,98762.72
2019-05-03T14:15:21.277Z,98772.84
2019-05-03T14:17:51.299Z,98773.09
2019-05-03T14:20:23.104Z,98770.67
2019-05-03T14:22:53.094Z,98774.09
2019-05-03T14:25:24.685Z,98769.70
2019-05-03T14:27:55.118Z,98769.28
2019-05-03T14:30:25.442Z,98769.43
2019-05-03T14:32:55.764Z,98768.22
2019-05-03T14:35:25.793Z,98759.30
2019-05-03T14:37:55.765Z,98765.27
2019-05-03T14:40:25.825Z,98764.66
2019-05-03T14:42:55.890Z,98760.23
2019-05-03T14:45:25.893Z,98766.05
2019-05-03T14:47:57.735Z,98768.05
2019-05-03T14:50:27.609Z,98771.64
2019-05-03T14:52:57.590Z,98766.88
2019-05-03T14:55:38.045Z,98767.80
2019-05-03T14:58:25.930Z,98770.56
2019-05-03T15:00:57.804Z,98771.71
2019-05-03T15:03:30.925Z,98770.83
2019-05-03T15:06:00.922Z,98764.09
2019-05-03T15:08:30.997Z,98768.58
2019-05-03T15:11:01.053Z,98761.63
2019-05-03T15:13:32.157Z,98765.98
2019-05-03T15:16:02.118Z,98769.43
2019-05-03T15:18:32.204Z,98784.84
2019-05-03T15:21:02.205Z,98776.05
2019-05-03T15:23:32.268Z,98781.78
2019-05-03T15:26:02.251Z,98784.16
2019-05-03T15:28:32.229Z,98785.68
2019-05-03T15:31:04.438Z,98788.55
2019-05-03T15:33:35.318Z,98790.00
2019-05-03T15:36:06.990Z,98792.72
2019-05-03T15:38:37.043Z,98789.12
2019-05-03T15:41:07.118Z,98794.47
2019-05-03T15:43:38.730Z,98793.55
2019-05-03T15:46:28.249Z,98798.22
2019-05-03T15:48:59.880Z,98798.12
2019-05-03T15:51:29.980Z,98794.84
2019-05-03T15:53:59.959Z,98798.71
2019-05-03T15:56:29.933Z,98796.94
2019-05-03T15:58:59.919Z,98799.44
2019-05-03T16:01:29.907Z,98795.48
2019-05-03T16:03:59.880Z,98795.20
2019-05-03T16:06:29.868Z,98797.59
2019-05-03T16:08:59.934Z,98804.61
2019-05-03T16:11:29.990Z,98798.89
2019-05-03T16:14:00.070Z,98806.06
2019-05-03T16:16:30.063Z,98806.27
2019-05-03T16:19:00.088Z,98804.53
2019-05-03T16:21:31.289Z,98808.20
2019-05-03T16:24:01.319Z,98802.63
2019-05-03T16:26:31.372Z,98796.57
2019-05-03T16:29:08.998Z,98798.58
2019-05-03T16:31:38.975Z,98778.39
2019-05-03T16:34:08.993Z,98797.59
2019-05-03T16:36:38.964Z,98805.76
2019-05-03T16:39:09.028Z,98796.86
2019-05-03T16:41:40.597Z,98797.96
2019-05-03T16:44:10.709Z,98799.06
2019-05-03T16:46:41.945Z,98799.59
2019-05-03T16:49:11.932Z,98805.55
2019-05-03T16:51:44.291Z,98810.66
2019-05-03T16:54:14.625Z,98806.66
2019-05-03T16:56:46.119Z,98804.25
2019-05-03T16:59:17.412Z,98804.60
2019-05-03T17:01:47.561Z,98806.48
2019-05-03T17:04:21.845Z,98805.46
2019-05-03T17:06:59.442Z,98809.36
2019-05-03T17:09:49.319Z,98802.39
2019-05-03T17:12:25.908Z,98802.70
2019-05-03T17:14:57.056Z,98800.09
2019-05-03T17:17:27.356Z,98798.81
2019-05-03T17:19:57.423Z,98801.11
2019-05-03T17:22:27.566Z,98799.89
2019-05-03T17:24:57.636Z,98807.72
2019-05-03T17:27:27.611Z,98809.38
2019-05-03T17:29:57.673Z,98812.78
2019-05-03T17:32:27.735Z,98819.52
2019-05-03T17:34:57.755Z,98820.11
2019-05-03T17:37:27.734Z,98824.64
2019-05-03T17:40:17.941Z,98818.93
2019-05-03T17:42:58.739Z,98828.95
2019-05-03T17:45:38.064Z,98833.38
2019-05-03T17:48:07.691Z,98842.63
2019-05-03T17:50:37.693Z,98853.41
2019-05-03T17:53:25.798Z,98857.02
2019-05-03T17:56:04.677Z,98864.41
2019-05-03T17:58:52.585Z,98864.28
2019-05-03T18:01:29.991Z,98866.25
2019-05-03T18:04:08.314Z,98865.45
2019-05-03T18:06:38.005Z,98878.19
2019-05-03T18:09:10.812Z,98879.66
2019-05-03T18:11:45.571Z,98870.84
2019-05-03T18:14:15.589Z,98877.27
2019-05-03T18:16:45.560Z,98878.58
2019-05-03T18:19:15.669Z,98884.66
2019-05-03T18:21:45.654Z,98881.56
2019-05-03T18:24:15.655Z,98886.45
2019-05-03T18:26:45.783Z,98890.28
2019-05-03T18:29:15.827Z,98898.39
2019-05-03T18:31:45.773Z,98899.09
2019-05-03T18:34:19.965Z,98907.39
2019-05-03T18:36:47.430Z,98912.02
2019-05-03T18:39:17.412Z,98921.08
2019-05-03T18:41:47.406Z,98926.16
2019-05-03T18:44:27.719Z,98928.76
2019-05-03T18:47:02.013Z,98927.44
2019-05-03T18:49:32.083Z,98931.20
2019-05-03T18:52:02.173Z,98927.62
2019-05-03T18:54:32.234Z,98930.61
2019-05-03T18:57:02.229Z,98935.77
2019-05-03T18:59:32.296Z,98939.13
2019-05-03T19:02:02.506Z,98941.80
2019-05-03T19:04:37.887Z,98948.29
2019-05-03T19:07:09.721Z,98948.36
2019-05-03T19:09:41.353Z,98940.44
2019-05-03T19:12:18.820Z,98942.64
2019-05-03T19:14:48.935Z,98952.53
2019-05-03T19:17:30.890Z,98955.98
2019-05-03T19:20:01.533Z,98959.27
2019-05-03T19:22:34.395Z,98957.72
2019-05-03T19:25:06.726Z,98959.64
2019-05-03T19:27:36.687Z,98957.59
2019-05-03T19:30:08.023Z,98962.32
2019-05-03T19:32:38.022Z,98964.30
2019-05-03T19:35:09.549Z,98969.52
2019-05-03T19:37:39.659Z,98973.84
2019-05-03T19:40:10.964Z,98966.20
2019-05-03T19:42:40.989Z,98976.47
2019-05-03T19:45:11.375Z,98975.28
2019-05-03T19:47:41.381Z,98979.42
2019-05-03T19:50:11.542Z,98979.25
2019-05-03T19:52:59.550Z,98974.22
2019-05-03T19:55:29.656Z,98973.53
2019-05-03T19:57:59.710Z,98974.52
2019-05-03T20:00:32.420Z,98978.36
2019-05-03T20:03:04.951Z,98967.41
2019-05-03T20:05:37.770Z,98977.36
2019-05-03T20:08:12.284Z,98985.73
2019-05-03T20:10:42.540Z,98995.59
2019-05-03T20:13:12.603Z,98995.36
2019-05-03T20:15:44.928Z,99000.03
2019-05-03T20:18:15.251Z,98990.80
2019-05-03T20:20:46.363Z,98993.16
2019-05-03T20:23:16.360Z,99003.77
2019-05-03T20:25:46.465Z,99010.13
2019-05-03T20:28:16.449Z,99006.66
2019-05-03T20:30:46.487Z,99010.10
2019-05-03T20:33:16.481Z,99015.34
2019-05-03T20:35:46.602Z,99020.89
2019-05-03T20:38:16.554Z,99025.96
2019-05-03T20:40:46.636Z,99022.48
2019-05-03T20:43:18.345Z,99032.22
2019-05-03T20:45:54.753Z,99027.66
2019-05-03T20:48:25.116Z,99029.67
2019-05-03T20:50:55.225Z,99032.69
2019-05-03T20:53:25.246Z,99038.38
2019-05-03T20:55:56.292Z,99038.91
2019-05-03T20:58:26.287Z,99040.58
2019-05-03T21:00:56.242Z,99046.46
2019-05-03T21:03:26.214Z,99051.59
2019-05-03T21:05:56.201Z,99050.75
2019-05-03T21:08:26.170Z,99046.77
2019-05-03T21:10:56.367Z,99048.72
2019-05-03T21:13:38.614Z,99054.02
2019-05-03T21:16:15.268Z,99051.33
2019-05-03T21:18:46.866Z,99053.95
2019-05-03T21:21:18.514Z,99049.02
2019-05-03T21:24:02.431Z,99053.48
2019-05-03T21:26:34.493Z,99057.50
2019-05-03T21:29:04.724Z,99064.89
2019-05-03T21:31:35.701Z,99070.19
2019-05-03T21:34:05.789Z,99076.53
2019-05-03T21:36:35.909Z,99079.49
2019-05-03T21:39:06.933Z,99083.66
2019-05-03T21:41:38.127Z,99081.23
2019-05-03T21:44:11.104Z,99080.77
2019-05-03T21:46:44.913Z,99080.84
2019-05-03T21:49:21.606Z,99092.58
2019-05-03T21:51:53.608Z,99085.27
2019-05-03T21:54:24.612Z,99093.03
2019-05-03T21:56:56.542Z,99089.22
2019-05-03T21:59:26.704Z,99092.30
2019-05-03T22:01:56.790Z,99088.82
2019-05-03T22:04:26.849Z,99098.45
2019-05-03T22:06:56.840Z,99097.62
2019-05-03T22:09:26.963Z,99099.19
2019-05-03T22:11:56.962Z,99100.89
2019-05-03T22:14:28.643Z,99099.52
2019-05-03T22:17:05.905Z,99102.33
2019-05-03T22:19:35.953Z,99102.72
2019-05-03T22:22:25.415Z,99104.23
2019-05-03T22:24:57.323Z,99101.10
2019-05-03T22:27:28.959Z,99098.30
2019-05-03T22:29:58.958Z,99108.25
2019-05-03T22:32:29.004Z,99107.78
2019-05-03T22:34:58.985Z,99108.63
2019-05-03T22:37:28.973Z,99113.50
2019-05-03T22:39:59.006Z,99112.77
2019-05-03T22:42:28.987Z,99110.33
2019-05-03T22:44:58.973Z,99115.11
2019-05-03T22:47:29.035Z,99116.00
2019-05-03T22:49:59.109Z,99110.05
2019-05-03T22:52:29.084Z,99113.44
2019-05-03T22:54:59.081Z,99110.58
2019-05-03T22:57:29.046Z,99113.49
2019-05-03T22:59:59.147Z,99116.06
2019-05-03T23:02:29.237Z,99116.52
2019-05-03T23:04:59.279Z,99115.63
2019-05-03T23:07:29.365Z,99110.89
2019-05-03T23:09:59.385Z,99123.28
2019-05-03T23:12:29.376Z,99121.94
2019-05-03T23:14:59.441Z,99122.09
2019-05-03T23:17:29.426Z,99120.20
2019-05-03T23:20:01.051Z,99122.50
2019-05-03T23:22:32.369Z,99127.07
2019-05-03T23:25:02.414Z,99128.89
2019-05-03T23:27:32.438Z,99134.08
2019-05-03T23:30:02.663Z,99127.91
2019-05-03T23:32:34.928Z,99146.30
2019-05-03T23:35:06.283Z,99139.71
2019-05-03T23:37:36.406Z,99141.07
2019-05-03T23:40:07.509Z,99146.30
2019-05-03T23:42:37.517Z,99144.73
2019-05-03T23:45:07.711Z,99144.97
2019-05-03T23:47:45.294Z,99149.27
2019-05-03T23:50:19.786Z,99145.47
2019-05-03T23:52:49.852Z,99152.88
2019-05-03T23:55:34.596Z,99157.86
2019-05-03T23:58:04.980Z,99158.09
